Time;durP1;ratioP1;P1;durP2;ratioP2;P2;SDS_P1;SDS_P2;PMS_P1;PMS_P2;Temp;Humidity;BMP_temperature;BMP_pressure;BME280_temperature;BME280_humidity;BME280_pressure;Samples;Min_cycle;Max_cycle;Signal;HPM_P1;HPM_P2
2021/08/01 00:00:21;;;;;;;21.17;4.50;;;;;;;;;;5047173;28;20080;-61
2021/08/01 00:02:48;;;;;;;15.48;4.05;;;;;;;;;;5045780;28;20136;-61
2021/08/01 00:05:14;;;;;;;23.42;3.53;;;;;;;;;;5039179;28;20046;-61
2021/08/01 00:07:41;;;;;;;18.55;3.58;;;;;;;;;;5039910;28;20069;-61
2021/08/01 00:10:08;;;;;;;11.68;2.92;;;;;;;;;;5043212;28;20132;-61
2021/08/01 00:12:35;;;;;;;18.50;3.95;;;;;;;;;;5049697;28;20049;-61
2021/08/01 00:15:02;;;;;;;26.15;3.67;;;;;;;;;;5045011;28;20057;-61
2021/08/01 00:17:29;;;;;;;16.23;3.55;;;;;;;;;;5041391;28;20519;-61
2021/08/01 00:19:55;;;;;;;12.38;2.95;;;;;;;;;;5040881;28;20111;-62
2021/08/01 00:22:22;;;;;;;21.70;3.90;;;;;;;;;;5040335;28;20135;-62
2021/08/01 00:24:48;;;;;;;31.15;3.53;;;;;;;;;;5045900;28;20119;-62
2021/08/01 00:27:15;;;;;;;22.05;4.00;;;;;;;;;;5040769;28;20557;-62
2021/08/01 00:29:41;;;;;;;18.70;3.70;;;;;;;;;;5043918;28;20123;-62
2021/08/01 00:32:08;;;;;;;21.55;4.07;;;;;;;;;;5044073;28;20144;-62
2021/08/01 00:34:34;;;;;;;18.35;3.08;;;;;;;;;;5044614;28;20136;-62
2021/08/01 00:37:01;;;;;;;19.38;3.33;;;;;;;;;;5042809;28;20140;-62
2021/08/01 00:39:28;;;;;;;20.58;3.10;;;;;;;;;;5043284;28;20135;-62
2021/08/01 00:41:56;;;;;;;14.50;3.15;;;;;;;;;;5037770;28;20413;-62
2021/08/01 00:44:22;;;;;;;23.30;4.32;;;;;;;;;;5045946;28;20595;-62
2021/08/01 00:46:49;;;;;;;22.27;3.75;;;;;;;;;;5046178;28;20608;-61
2021/08/01 00:49:15;;;;;;;18.38;3.50;;;;;;;;;;5040893;28;20565;-62
2021/08/01 00:51:42;;;;;;;18.27;3.88;;;;;;;;;;5048743;28;20080;-61
2021/08/01 00:54:08;;;;;;;15.75;3.40;;;;;;;;;;5046988;28;20059;-62
2021/08/01 00:56:34;;;;;;;13.77;3.20;;;;;;;;;;5044874;28;20128;-62
2021/08/01 00:59:01;;;;;;;16.55;3.33;;;;;;;;;;5046406;28;20135;-61
2021/08/01 01:01:38;;;;;;;15.95;3.30;;;;;;;;;;5044957;28;20064;-61
2021/08/01 01:04:25;;;;;;;14.77;3.20;;;;;;;;;;5048279;28;20049;-62
2021/08/01 01:07:01;;;;;;;12.77;3.00;;;;;;;;;;5044325;28;20523;-62
2021/08/01 01:09:32;;;;;;;15.32;3.22;;;;;;;;;;5045341;28;20143;-62
2021/08/01 01:12:02;;;;;;;15.02;3.10;;;;;;;;;;5050034;28;20160;-61
2021/08/01 01:14:29;;;;;;;24.52;3.97;;;;;;;;;;5040867;28;20099;-62
2021/08/01 01:16:59;;;;;;;15.57;3.10;;;;;;;;;;5044202;28;20075;-62
2021/08/01 01:19:43;;;;;;;20.60;3.30;;;;;;;;;;5043490;28;20081;-62
2021/08/01 01:22:14;;;;;;;15.05;3.53;;;;;;;;;;5039988;28;20125;-62
2021/08/01 01:24:44;;;;;;;23.30;3.80;;;;;;;;;;5045571;28;20411;-62
2021/08/01 01:27:21;;;;;;;16.20;3.15;;;;;;;;;;5044841;28;20135;-62
2021/08/01 01:29:51;;;;;;;21.70;3.33;;;;;;;;;;5046088;28;20080;-61
2021/08/01 01:32:17;;;;;;;18.15;3.72;;;;;;;;;;5048101;28;20113;-61
2021/08/01 01:35:07;;;;;;;18.98;3.72;;;;;;;;;;5043995;28;20049;-61
2021/08/01 01:37:34;;;;;;;23.45;3.47;;;;;;;;;;5037709;28;20080;-61
2021/08/01 01:40:01;;;;;;;20.10;3.70;;;;;;;;;;5042738;28;20491;-61
2021/08/01 01:42:29;;;;;;;19.83;3.38;;;;;;;;;;5043517;28;20042;-62
2021/08/01 01:44:57;;;;;;;17.73;2.95;;;;;;;;;;5042539;28;20140;-61
2021/08/01 01:47:24;;;;;;;15.40;3.40;;;;;;;;;;5043355;28;20045;-61
2021/08/01 01:49:53;;;;;;;24.98;4.25;;;;;;;;;;5045527;28;20140;-61
2021/08/01 01:52:21;;;;;;;19.48;3.47;;;;;;;;;;5045606;28;20137;-61
2021/08/01 01:54:47;;;;;;;30.92;3.60;;;;;;;;;;5040196;28;20128;-61
2021/08/01 01:57:14;;;;;;;19.58;3.88;;;;;;;;;;5038095;28;20172;-61
2021/08/01 01:59:41;;;;;;;19.47;3.40;;;;;;;;;;5040482;28;20136;-62
2021/08/01 02:02:08;;;;;;;24.52;3.78;;;;;;;;;;5027564;28;20307;-61
2021/08/01 02:04:35;;;;;;;18.00;4.10;;;;;;;;;;5041620;28;20045;-61
2021/08/01 02:07:01;;;;;;;20.08;3.60;;;;;;;;;;5039540;28;20132;-61
2021/08/01 02:09:33;;;;;;;20.42;3.83;;;;;;;;;;5044820;28;20041;-61
2021/08/01 02:12:06;;;;;;;20.08;3.80;;;;;;;;;;5052654;28;20088;-61
2021/08/01 02:14:36;;;;;;;20.95;4.10;;;;;;;;;;5038867;28;20119;-62
2021/08/01 02:17:05;;;;;;;20.35;4.47;;;;;;;;;;5044571;28;20076;-61
2021/08/01 02:19:34;;;;;;;22.42;4.65;;;;;;;;;;5039882;28;20076;-62
2021/08/01 02:22:03;;;;;;;21.13;3.75;;;;;;;;;;5043369;28;20144;-61
2021/08/01 02:24:30;;;;;;;20.08;4.20;;;;;;;;;;5044347;28;20081;-61
2021/08/01 02:26:57;;;;;;;31.05;4.70;;;;;;;;;;5040065;28;20044;-62
2021/08/01 02:29:25;;;;;;;20.40;4.35;;;;;;;;;;5043622;28;20568;-62
2021/08/01 02:31:52;;;;;;;18.90;3.25;;;;;;;;;;5044633;28;20077;-62
2021/08/01 02:34:19;;;;;;;13.43;3.22;;;;;;;;;;5047072;28;20764;-62
2021/08/01 02:36:46;;;;;;;17.35;3.20;;;;;;;;;;5041725;28;20556;-61
2021/08/01 02:39:13;;;;;;;22.27;4.00;;;;;;;;;;5038406;28;20139;-61
2021/08/01 02:41:42;;;;;;;26.92;4.57;;;;;;;;;;5045121;28;20156;-61
2021/08/01 02:44:13;;;;;;;17.92;3.58;;;;;;;;;;5036552;28;20059;-62
2021/08/01 02:46:41;;;;;;;23.90;4.25;;;;;;;;;;5042172;28;20132;-62
2021/08/01 02:49:11;;;;;;;23.27;3.50;;;;;;;;;;5042147;28;20084;-62
2021/08/01 02:51:37;;;;;;;23.55;3.55;;;;;;;;;;5042700;28;20132;-61
2021/08/01 02:54:04;;;;;;;21.35;4.03;;;;;;;;;;5044376;28;20049;-61
2021/08/01 02:56:33;;;;;;;21.42;4.20;;;;;;;;;;5044777;28;20079;-61
2021/08/01 02:59:00;;;;;;;22.35;4.07;;;;;;;;;;5039430;28;20076;-62
2021/08/01 03:01:27;;;;;;;18.58;4.28;;;;;;;;;;5041599;28;20467;-61
2021/08/01 03:03:54;;;;;;;18.63;4.05;;;;;;;;;;5041007;28;20068;-61
2021/08/01 03:06:21;;;;;;;34.00;4.47;;;;;;;;;;5041557;28;20056;-61
2021/08/01 03:08:47;;;;;;;16.67;3.67;;;;;;;;;;5043658;28;20080;-62
2021/08/01 03:11:21;;;;;;;28.63;5.00;;;;;;;;;;5036944;28;20180;-61
2021/08/01 03:13:48;;;;;;;21.42;4.55;;;;;;;;;;5041185;28;20176;-61
2021/08/01 03:16:14;;;;;;;23.15;4.35;;;;;;;;;;5049597;28;20068;-61
2021/08/01 03:18:41;;;;;;;17.08;3.67;;;;;;;;;;5041034;28;20080;-61
2021/08/01 03:21:07;;;;;;;18.35;3.28;;;;;;;;;;5038612;28;20087;-61
2021/08/01 03:23:34;;;;;;;29.17;4.75;;;;;;;;;;5041960;28;20136;-61
2021/08/01 03:26:00;;;;;;;27.58;4.05;;;;;;;;;;5041109;28;20139;-61
2021/08/01 03:28:27;;;;;;;17.08;3.33;;;;;;;;;;5043475;28;20076;-61
2021/08/01 03:30:54;;;;;;;24.60;3.88;;;;;;;;;;5035456;28;20128;-62
2021/08/01 03:33:20;;;;;;;19.40;3.83;;;;;;;;;;5039059;28;20085;-62
2021/08/01 03:35:47;;;;;;;22.95;3.65;;;;;;;;;;5047726;28;20123;-61
2021/08/01 03:38:15;;;;;;;23.77;3.70;;;;;;;;;;5045832;28;20087;-61
2021/08/01 03:40:42;;;;;;;22.17;4.40;;;;;;;;;;5041637;28;20077;-61
2021/08/01 03:43:09;;;;;;;24.00;4.22;;;;;;;;;;5039704;28;20065;-62
2021/08/01 03:45:36;;;;;;;19.08;3.80;;;;;;;;;;5043711;28;20084;-61
2021/08/01 03:48:03;;;;;;;17.55;3.42;;;;;;;;;;5043596;28;20079;-62
2021/08/01 03:50:29;;;;;;;20.02;4.07;;;;;;;;;;5040122;28;20132;-62
2021/08/01 03:52:55;;;;;;;25.40;4.47;;;;;;;;;;5041080;28;20173;-61
2021/08/01 03:55:22;;;;;;;20.05;4.28;;;;;;;;;;5044592;28;20128;-62
2021/08/01 03:57:48;;;;;;;18.90;4.10;;;;;;;;;;5039743;28;20041;-61
2021/08/01 04:00:15;;;;;;;17.27;3.53;;;;;;;;;;5045960;28;20127;-61
2021/08/01 04:02:41;;;;;;;23.40;3.95;;;;;;;;;;5041871;28;20099;-62
2021/08/01 04:05:09;;;;;;;24.35;3.78;;;;;;;;;;5050219;28;20096;-62
2021/08/01 04:07:35;;;;;;;14.13;3.08;;;;;;;;;;5045550;28;20128;-62
2021/08/01 04:10:02;;;;;;;23.40;3.72;;;;;;;;;;5045180;28;20079;-61
2021/08/01 04:12:30;;;;;;;28.43;3.83;;;;;;;;;;5048123;28;20135;-62
2021/08/01 04:14:57;;;;;;;26.00;4.03;;;;;;;;;;5046654;28;20084;-61
2021/08/01 04:17:23;;;;;;;17.83;4.20;;;;;;;;;;5031139;28;20129;-61
2021/08/01 04:19:51;;;;;;;17.95;3.53;;;;;;;;;;5046902;28;20045;-62
2021/08/01 04:22:17;;;;;;;15.13;3.72;;;;;;;;;;5047330;28;20040;-62
2021/08/01 04:24:43;;;;;;;18.30;3.80;;;;;;;;;;5046969;28;20046;-62
2021/08/01 04:27:10;;;;;;;25.70;3.95;;;;;;;;;;5048168;28;20124;-62
2021/08/01 04:29:37;;;;;;;13.90;3.22;;;;;;;;;;5044894;28;20173;-61
2021/08/01 04:32:03;;;;;;;19.45;3.58;;;;;;;;;;5047610;28;20091;-61
2021/08/01 04:34:30;;;;;;;15.77;3.50;;;;;;;;;;5037621;28;20123;-62
2021/08/01 04:36:56;;;;;;;18.58;3.45;;;;;;;;;;5043837;28;20132;-62
2021/08/01 04:39:22;;;;;;;25.08;3.97;;;;;;;;;;5048073;28;20083;-61
2021/08/01 04:41:50;;;;;;;18.20;4.10;;;;;;;;;;5042674;28;20612;-62
2021/08/01 04:44:16;;;;;;;16.38;3.50;;;;;;;;;;5043242;28;20480;-61
2021/08/01 04:46:42;;;;;;;16.50;2.90;;;;;;;;;;5046333;28;20084;-62
2021/08/01 04:49:09;;;;;;;22.25;4.22;;;;;;;;;;5044573;28;20073;-62
2021/08/01 04:51:35;;;;;;;22.10;4.18;;;;;;;;;;5052730;28;20576;-62
2021/08/01 04:54:02;;;;;;;17.15;3.85;;;;;;;;;;5041054;28;20095;-62
2021/08/01 04:56:28;;;;;;;23.08;4.47;;;;;;;;;;5042394;28;20136;-62
2021/08/01 04:58:55;;;;;;;22.98;4.18;;;;;;;;;;5046442;28;20049;-61
2021/08/01 05:01:21;;;;;;;19.33;3.42;;;;;;;;;;5045715;28;20594;-61
2021/08/01 05:03:48;;;;;;;17.65;3.40;;;;;;;;;;5045458;28;20049;-62
2021/08/01 05:06:15;;;;;;;15.35;3.95;;;;;;;;;;5038940;28;20069;-61
2021/08/01 05:08:41;;;;;;;23.45;3.40;;;;;;;;;;5042218;28;20053;-62
2021/08/01 05:11:08;;;;;;;16.67;3.35;;;;;;;;;;5046864;28;20053;-61
2021/08/01 05:13:34;;;;;;;18.55;4.00;;;;;;;;;;5042964;28;20098;-62
2021/08/01 05:16:01;;;;;;;21.70;4.43;;;;;;;;;;5044743;28;20076;-62
2021/08/01 05:18:27;;;;;;;21.00;3.72;;;;;;;;;;5049693;28;20045;-62
2021/08/01 05:20:54;;;;;;;19.48;3.97;;;;;;;;;;5045700;28;20479;-61
2021/08/01 05:23:20;;;;;;;21.35;3.97;;;;;;;;;;5043405;28;20091;-62
2021/08/01 05:25:47;;;;;;;15.90;3.75;;;;;;;;;;5039546;28;20445;-61
2021/08/01 05:28:13;;;;;;;15.35;3.78;;;;;;;;;;5042761;28;20167;-61
2021/08/01 05:30:39;;;;;;;25.88;4.05;;;;;;;;;;5034163;28;20080;-61
2021/08/01 05:33:07;;;;;;;12.37;3.03;;;;;;;;;;5044656;28;20077;-61
2021/08/01 05:35:37;;;;;;;25.38;3.72;;;;;;;;;;5047415;28;20084;-61
2021/08/01 05:38:04;;;;;;;29.13;4.53;;;;;;;;;;5038306;28;20092;-62
2021/08/01 05:40:31;;;;;;;20.98;4.30;;;;;;;;;;5043701;28;20087;-62
2021/08/01 05:42:59;;;;;;;16.58;3.63;;;;;;;;;;5041120;28;20061;-62
2021/08/01 05:45:26;;;;;;;21.05;4.25;;;;;;;;;;5041054;28;20038;-61
2021/08/01 05:47:54;;;;;;;16.75;3.10;;;;;;;;;;5048063;28;20124;-61
2021/08/01 05:50:21;;;;;;;22.97;3.93;;;;;;;;;;5044081;28;20094;-61
2021/08/01 05:52:47;;;;;;;19.27;3.70;;;;;;;;;;5041893;28;20339;-62
2021/08/01 05:55:14;;;;;;;18.92;4.22;;;;;;;;;;5029067;28;20162;-62
2021/08/01 05:57:40;;;;;;;20.92;3.67;;;;;;;;;;5045812;28;20132;-62
2021/08/01 06:00:07;;;;;;;22.17;4.07;;;;;;;;;;5040165;28;21002;-62
2021/08/01 06:02:34;;;;;;;21.42;3.60;;;;;;;;;;5043141;28;20132;-62
2021/08/01 06:05:01;;;;;;;17.90;4.20;;;;;;;;;;5039129;28;20075;-62
2021/08/01 06:07:27;;;;;;;17.08;3.72;;;;;;;;;;5036844;28;20050;-62
2021/08/01 06:09:54;;;;;;;27.02;4.63;;;;;;;;;;5040727;28;20543;-62
2021/08/01 06:12:20;;;;;;;13.88;3.50;;;;;;;;;;5040449;28;20087;-62
2021/08/01 06:14:48;;;;;;;15.15;3.50;;;;;;;;;;5040419;28;20103;-62
2021/08/01 06:17:15;;;;;;;15.80;3.47;;;;;;;;;;5045963;28;20041;-62
2021/08/01 06:19:42;;;;;;;16.63;3.25;;;;;;;;;;5046968;28;20079;-62
2021/08/01 06:22:08;;;;;;;19.65;3.53;;;;;;;;;;5044257;28;20535;-61
2021/08/01 06:24:35;;;;;;;27.55;3.85;;;;;;;;;;5045908;28;20114;-62
2021/08/01 06:27:02;;;;;;;15.13;3.40;;;;;;;;;;5041961;28;20037;-62
2021/08/01 06:29:28;;;;;;;24.98;3.50;;;;;;;;;;5044858;28;20057;-62
2021/08/01 06:31:55;;;;;;;22.77;3.57;;;;;;;;;;5039878;28;20594;-62
2021/08/01 06:34:23;;;;;;;23.98;3.65;;;;;;;;;;5048384;28;20588;-62
2021/08/01 06:36:50;;;;;;;16.65;3.75;;;;;;;;;;5042356;28;20100;-62
2021/08/01 06:39:16;;;;;;;27.45;3.78;;;;;;;;;;5043640;28;20049;-62
2021/08/01 06:41:43;;;;;;;21.23;4.72;;;;;;;;;;5047431;28;20132;-62
2021/08/01 06:44:11;;;;;;;20.10;4.53;;;;;;;;;;5037010;28;20052;-62
2021/08/01 06:46:38;;;;;;;18.48;3.22;;;;;;;;;;5040791;28;20476;-62
2021/08/01 06:49:04;;;;;;;20.65;3.58;;;;;;;;;;5039275;28;20136;-62
2021/08/01 06:51:30;;;;;;;17.73;3.30;;;;;;;;;;5039899;28;22129;-62
2021/08/01 06:53:57;;;;;;;19.30;3.37;;;;;;;;;;5039314;28;20505;-62
2021/08/01 06:56:24;;;;;;;21.15;3.78;;;;;;;;;;5040740;28;20053;-62
2021/08/01 06:58:50;;;;;;;20.58;3.63;;;;;;;;;;5042976;28;20460;-62
2021/08/01 07:01:17;;;;;;;15.20;3.23;;;;;;;;;;5045835;28;20133;-62
2021/08/01 07:03:44;;;;;;;20.85;3.67;;;;;;;;;;5041897;28;20726;-62
2021/08/01 07:06:12;;;;;;;16.70;3.58;;;;;;;;;;5044102;28;20087;-62
2021/08/01 07:08:38;;;;;;;21.63;4.40;;;;;;;;;;5042363;28;20496;-62
2021/08/01 07:11:05;;;;;;;19.98;3.70;;;;;;;;;;5041264;28;20080;-62
2021/08/01 07:13:31;;;;;;;16.63;3.28;;;;;;;;;;5041458;28;20076;-62
2021/08/01 07:16:01;;;;;;;15.97;3.53;;;;;;;;;;5043616;28;20053;-62
2021/08/01 07:18:28;;;;;;;19.08;3.42;;;;;;;;;;5045298;28;20287;-62
2021/08/01 07:20:54;;;;;;;21.63;4.28;;;;;;;;;;5034642;28;20136;-62
2021/08/01 07:23:21;;;;;;;19.58;3.45;;;;;;;;;;5041618;28;20084;-62
2021/08/01 07:25:47;;;;;;;18.13;3.47;;;;;;;;;;5036731;28;20080;-62
2021/08/01 07:28:13;;;;;;;19.25;3.55;;;;;;;;;;5043151;28;20071;-63
2021/08/01 07:30:40;;;;;;;14.73;3.27;;;;;;;;;;5044332;28;20136;-63
2021/08/01 07:33:07;;;;;;;15.32;3.75;;;;;;;;;;5042111;28;20367;-62
2021/08/01 07:35:33;;;;;;;16.48;3.60;;;;;;;;;;5038331;28;20095;-63
2021/08/01 07:38:00;;;;;;;12.73;3.22;;;;;;;;;;5042437;28;20107;-63
2021/08/01 07:40:26;;;;;;;20.35;3.42;;;;;;;;;;5043402;28;20471;-63
2021/08/01 07:42:53;;;;;;;21.45;4.00;;;;;;;;;;5041125;28;20149;-63
2021/08/01 07:45:25;;;;;;;16.70;3.27;;;;;;;;;;5037843;28;20041;-63
2021/08/01 07:47:51;;;;;;;16.60;3.63;;;;;;;;;;5046902;28;20045;-63
2021/08/01 07:50:18;;;;;;;18.73;3.95;;;;;;;;;;5046121;28;20120;-63
2021/08/01 07:52:44;;;;;;;14.68;3.35;;;;;;;;;;5046985;28;20051;-63
2021/08/01 07:55:15;;;;;;;20.00;3.38;;;;;;;;;;5053785;28;20048;-63
2021/08/01 07:57:42;;;;;;;19.48;3.55;;;;;;;;;;5042376;28;20084;-63
2021/08/01 08:00:11;;;;;;;21.80;3.92;;;;;;;;;;5042820;28;20053;-63
2021/08/01 08:02:38;;;;;;;17.92;3.90;;;;;;;;;;5053600;28;20075;-63
2021/08/01 08:05:07;;;;;;;21.63;4.00;;;;;;;;;;5038952;28;20128;-63
2021/08/01 08:07:33;;;;;;;21.52;4.30;;;;;;;;;;5047612;28;20161;-63
2021/08/01 08:10:00;;;;;;;21.65;4.15;;;;;;;;;;5038929;28;20056;-63
2021/08/01 08:12:26;;;;;;;17.67;3.10;;;;;;;;;;5045416;28;20128;-63
2021/08/01 08:14:53;;;;;;;13.13;3.45;;;;;;;;;;5041230;28;20106;-63
2021/08/01 08:17:20;;;;;;;22.15;3.63;;;;;;;;;;5044385;28;20128;-63
2021/08/01 08:19:46;;;;;;;23.85;4.25;;;;;;;;;;5045190;28;20120;-63
2021/08/01 08:22:13;;;;;;;15.13;3.10;;;;;;;;;;5045654;28;20128;-63
2021/08/01 08:24:39;;;;;;;17.13;3.08;;;;;;;;;;5042564;28;20128;-63
2021/08/01 08:27:06;;;;;;;15.43;2.92;;;;;;;;;;5043748;28;20129;-63
2021/08/01 08:29:34;;;;;;;11.32;2.63;;;;;;;;;;5026604;28;20119;-63
2021/08/01 08:32:00;;;;;;;16.20;2.85;;;;;;;;;;5043331;28;20111;-63
2021/08/01 08:34:27;;;;;;;20.45;3.30;;;;;;;;;;5047602;28;20084;-63
2021/08/01 08:36:54;;;;;;;;;;;;;;;;;;5041767;28;20124;-63
2021/08/01 08:39:21;;;;;;;11.98;3.22;;;;;;;;;;5043564;28;20015;-63
2021/08/01 08:41:48;;;;;;;18.90;3.95;;;;;;;;;;5043968;28;20144;-63
2021/08/01 08:44:15;;;;;;;;;;;;;;;;;;5044076;28;20088;-63
2021/08/01 08:46:46;;;;;;;11.80;2.75;;;;;;;;;;5043907;28;19968;-63
2021/08/01 08:49:13;;;;;;;16.48;2.85;;;;;;;;;;5043496;28;20058;-63
2021/08/01 08:51:41;;;;;;;10.45;2.42;;;;;;;;;;5045326;28;20136;-63
2021/08/01 08:54:19;;;;;;;17.23;3.53;;;;;;;;;;5042864;28;20077;-63
2021/08/01 08:56:47;;;;;;;18.25;2.85;;;;;;;;;;5045166;28;20056;-63
2021/08/01 08:59:16;;;;;;;19.83;3.72;;;;;;;;;;5041143;28;20128;-63
2021/08/01 09:01:43;;;;;;;11.52;2.50;;;;;;;;;;5040256;28;20053;-63
2021/08/01 09:04:10;;;;;;;14.43;2.88;;;;;;;;;;5042175;28;20044;-63
2021/08/01 09:06:37;;;;;;;13.57;2.60;;;;;;;;;;5036491;28;20169;-63
2021/08/01 09:09:03;;;;;;;14.27;2.80;;;;;;;;;;5044205;28;20053;-63
2021/08/01 09:11:30;;;;;;;20.13;2.92;;;;;;;;;;5043616;28;20167;-63
2021/08/01 09:13:57;;;;;;;13.90;3.28;;;;;;;;;;5044395;28;20148;-63
2021/08/01 09:16:43;;;;;;;12.25;2.50;;;;;;;;;;5037526;28;20057;-64
2021/08/01 09:19:26;;;;;;;12.18;2.28;;;;;;;;;;5042313;28;20087;-63
2021/08/01 09:21:53;;;;;;;12.23;2.50;;;;;;;;;;5045044;28;20132;-63
2021/08/01 09:24:20;;;;;;;14.48;2.80;;;;;;;;;;5040767;28;20080;-63
2021/08/01 09:26:53;;;;;;;13.70;2.83;;;;;;;;;;5041926;28;20483;-63
2021/08/01 09:29:19;;;;;;;12.93;3.00;;;;;;;;;;5035429;28;20056;-63
2021/08/01 09:31:56;;;;;;;11.05;2.28;;;;;;;;;;5043732;28;20124;-63
2021/08/01 09:34:27;;;;;;;10.07;2.40;;;;;;;;;;5045068;28;20168;-63
2021/08/01 09:37:04;;;;;;;10.77;2.33;;;;;;;;;;5039529;28;20144;-63
2021/08/01 09:39:43;;;;;;;13.85;2.88;;;;;;;;;;5042220;28;20056;-63
2021/08/01 09:42:10;;;;;;;13.13;2.45;;;;;;;;;;5048250;28;20152;-63
2021/08/01 09:44:38;;;;;;;8.07;1.85;;;;;;;;;;5038343;28;20128;-63
2021/08/01 09:47:05;;;;;;;9.98;2.35;;;;;;;;;;5039391;28;20067;-63
2021/08/01 09:49:32;;;;;;;11.10;2.15;;;;;;;;;;5042520;28;20069;-63
2021/08/01 09:52:00;;;;;;;11.13;2.10;;;;;;;;;;5041607;28;20503;-63
2021/08/01 09:54:43;;;;;;;7.57;2.10;;;;;;;;;;5041881;28;20049;-63
2021/08/01 09:57:14;;;;;;;12.38;1.98;;;;;;;;;;5043545;28;20081;-63
2021/08/01 09:59:41;;;;;;;9.48;1.95;;;;;;;;;;5043256;28;20072;-63
2021/08/01 10:02:08;;;;;;;8.32;2.42;;;;;;;;;;5045003;28;20064;-63
2021/08/01 10:04:42;;;;;;;11.63;2.55;;;;;;;;;;5029124;28;20049;-63
2021/08/01 10:07:13;;;;;;;13.93;2.58;;;;;;;;;;5048927;28;20045;-63
2021/08/01 10:09:41;;;;;;;10.93;2.15;;;;;;;;;;5041807;28;20045;-63
2021/08/01 10:12:08;;;;;;;11.73;2.78;;;;;;;;;;5047949;28;20500;-63
2021/08/01 10:14:35;;;;;;;19.98;2.72;;;;;;;;;;5043033;28;20053;-63
2021/08/01 10:17:02;;;;;;;;;;;;;;;;;;5041087;28;20105;-63
2021/08/01 10:19:28;;;;;;;7.32;2.35;;;;;;;;;;5042577;28;20012;-63
2021/08/01 10:21:57;;;;;;;7.37;1.90;;;;;;;;;;5033617;28;20561;-63
2021/08/01 10:24:31;;;;;;;14.52;2.67;;;;;;;;;;5037572;28;20153;-63
2021/08/01 10:27:04;;;;;;;7.53;1.65;;;;;;;;;;5041935;28;20073;-63
2021/08/01 10:29:34;;;;;;;12.65;2.55;;;;;;;;;;5040920;28;20080;-63
2021/08/01 10:32:04;;;;;;;14.02;2.60;;;;;;;;;;5039278;28;20041;-63
2021/08/01 10:34:35;;;;;;;8.98;1.88;;;;;;;;;;5043760;28;20083;-63
2021/08/01 10:37:04;;;;;;;5.82;1.65;;;;;;;;;;5032930;28;20136;-63
2021/08/01 10:39:31;;;;;;;8.68;2.13;;;;;;;;;;5046277;28;20068;-63
2021/08/01 10:42:01;;;;;;;16.08;2.60;;;;;;;;;;5042241;28;20582;-63
2021/08/01 10:44:28;;;;;;;13.00;2.17;;;;;;;;;;5037768;28;20099;-63
2021/08/01 10:46:54;;;;;;;10.68;2.20;;;;;;;;;;5038183;28;20151;-63
2021/08/01 10:49:20;;;;;;;11.07;2.05;;;;;;;;;;5039861;28;20140;-63
2021/08/01 10:51:47;;;;;;;8.95;2.28;;;;;;;;;;5038968;28;20135;-63
2021/08/01 10:54:21;;;;;;;15.68;2.67;;;;;;;;;;5037616;28;20052;-63
2021/08/01 10:57:08;;;;;;;12.73;2.28;;;;;;;;;;5039313;28;20061;-63
2021/08/01 10:59:44;;;;;;;9.50;2.08;;;;;;;;;;5042775;28;20504;-63
2021/08/01 11:02:14;;;;;;;11.15;2.25;;;;;;;;;;5041638;28;20049;-63
2021/08/01 11:04:44;;;;;;;12.80;2.50;;;;;;;;;;5041869;28;20102;-64
2021/08/01 11:07:10;;;;;;;12.32;2.33;;;;;;;;;;5041837;28;20138;-63
2021/08/01 11:09:37;;;;;;;12.18;2.28;;;;;;;;;;5039772;28;20132;-63
2021/08/01 11:12:19;;;;;;;12.32;2.03;;;;;;;;;;5047843;28;20049;-63
2021/08/01 11:14:47;;;;;;;9.25;2.25;;;;;;;;;;5038103;28;20412;-63
2021/08/01 11:17:14;;;;;;;13.70;2.53;;;;;;;;;;5042200;28;20037;-63
2021/08/01 11:19:43;;;;;;;11.82;1.92;;;;;;;;;;5039175;28;20041;-63
2021/08/01 11:22:11;;;;;;;;;;;;;;;;;;5046529;28;20599;-63
2021/08/01 11:24:57;;;;;;;15.23;2.13;;;;;;;;;;5044643;28;20066;-63
2021/08/01 11:27:24;;;;;;;8.68;2.05;;;;;;;;;;5048606;28;20456;-64
2021/08/01 11:29:59;;;;;;;10.68;2.08;;;;;;;;;;5043749;28;20073;-63
2021/08/01 11:32:26;;;;;;;13.00;2.10;;;;;;;;;;5046511;28;20131;-63
2021/08/01 11:35:11;;;;;;;11.02;2.13;;;;;;;;;;5046803;28;20131;-63
2021/08/01 11:37:38;;;;;;;10.80;2.30;;;;;;;;;;5041749;28;20096;-64
2021/08/01 11:40:06;;;;;;;8.73;2.03;;;;;;;;;;5040609;28;20136;-63
2021/08/01 11:42:32;;;;;;;;;;;;;;;;;;5045024;28;20128;-63
2021/08/01 11:45:00;;;;;;;11.65;2.33;;;;;;;;;;5045037;28;20402;-64
2021/08/01 11:47:27;;;;;;;8.82;2.15;;;;;;;;;;5046961;28;20147;-63
2021/08/01 11:49:53;;;;;;;10.98;2.17;;;;;;;;;;5051148;28;20049;-63
2021/08/01 11:52:31;;;;;;;12.07;2.42;;;;;;;;;;5043044;28;20076;-63
2021/08/01 11:54:58;;;;;;;11.60;1.97;;;;;;;;;;5046067;28;20049;-63
2021/08/01 11:57:27;;;;;;;8.23;1.88;;;;;;;;;;5044948;28;20069;-63
2021/08/01 11:59:53;;;;;;;11.98;2.10;;;;;;;;;;5047695;28;20132;-63
2021/08/01 12:02:20;;;;;;;9.50;1.98;;;;;;;;;;5048106;28;20077;-63
2021/08/01 12:04:54;;;;;;;7.65;2.30;;;;;;;;;;5045743;28;20049;-64
2021/08/01 12:07:20;;;;;;;11.85;2.40;;;;;;;;;;5044681;28;20106;-64
2021/08/01 12:09:47;;;;;;;14.13;2.90;;;;;;;;;;5042122;28;20128;-63
2021/08/01 12:12:13;;;;;;;9.88;2.08;;;;;;;;;;5043596;28;20155;-63
2021/08/01 12:14:41;;;;;;;7.90;2.00;;;;;;;;;;5048221;28;20076;-64
2021/08/01 12:17:09;;;;;;;11.27;2.80;;;;;;;;;;5044614;28;20520;-63
2021/08/01 12:19:39;;;;;;;10.05;2.38;;;;;;;;;;5042029;28;20465;-63
2021/08/01 12:22:06;;;;;;;8.90;2.00;;;;;;;;;;5041777;28;20811;-63
2021/08/01 12:24:34;;;;;;;9.05;1.85;;;;;;;;;;5045071;28;20068;-63
2021/08/01 12:27:21;;;;;;;9.18;2.38;;;;;;;;;;5044880;28;20049;-63
2021/08/01 12:29:49;;;;;;;11.48;2.03;;;;;;;;;;5042511;28;20096;-63
2021/08/01 12:32:17;;;;;;;9.60;2.05;;;;;;;;;;5040806;28;20133;-63
2021/08/01 12:34:43;;;;;;;10.77;2.20;;;;;;;;;;5043965;28;20137;-63
2021/08/01 12:37:10;;;;;;;13.52;2.33;;;;;;;;;;5049891;28;20128;-63
2021/08/01 12:39:44;;;;;;;9.60;2.50;;;;;;;;;;5047220;28;20556;-63
2021/08/01 12:42:11;;;;;;;10.43;2.05;;;;;;;;;;5044939;28;20737;-63
2021/08/01 12:44:48;;;;;;;12.05;2.30;;;;;;;;;;5044746;28;20044;-64
2021/08/01 12:47:15;;;;;;;9.88;2.05;;;;;;;;;;5044275;28;20057;-63
2021/08/01 12:49:41;;;;;;;8.63;1.93;;;;;;;;;;5046176;28;20143;-63
2021/08/01 12:52:08;;;;;;;7.15;1.75;;;;;;;;;;5043220;28;20045;-63
2021/08/01 12:54:34;;;;;;;13.82;2.33;;;;;;;;;;5043799;28;20128;-63
2021/08/01 12:57:08;;;;;;;12.20;2.23;;;;;;;;;;5041284;28;20053;-63
2021/08/01 12:59:35;;;;;;;11.52;2.25;;;;;;;;;;5050225;28;20518;-64
2021/08/01 13:02:05;;;;;;;11.77;2.33;;;;;;;;;;5042258;28;20099;-63
2021/08/01 13:04:38;;;;;;;8.73;2.05;;;;;;;;;;5046040;28;20052;-63
2021/08/01 13:07:05;;;;;;;12.90;2.30;;;;;;;;;;5046737;28;20484;-64
2021/08/01 13:09:31;;;;;;;14.95;3.10;;;;;;;;;;5043505;28;20095;-64
2021/08/01 13:12:07;;;;;;;10.73;2.40;;;;;;;;;;5044764;28;20668;-64
2021/08/01 13:14:34;;;;;;;9.65;2.20;;;;;;;;;;5042581;28;20148;-63
2021/08/01 13:17:01;;;;;;;17.40;2.80;;;;;;;;;;5039176;28;20052;-64
2021/08/01 13:19:34;;;;;;;8.65;1.90;;;;;;;;;;5037089;28;20132;-64
2021/08/01 13:22:06;;;;;;;10.50;1.77;;;;;;;;;;5040679;28;20606;-63
2021/08/01 13:24:35;;;;;;;10.20;2.80;;;;;;;;;;5039804;28;20136;-63
2021/08/01 13:27:03;;;;;;;7.35;1.98;;;;;;;;;;5037295;28;20084;-63
2021/08/01 13:29:30;;;;;;;9.75;2.28;;;;;;;;;;5037161;28;20140;-64
2021/08/01 13:32:04;;;;;;;9.57;2.17;;;;;;;;;;5044341;28;20049;-63
2021/08/01 13:34:47;;;;;;;12.65;1.95;;;;;;;;;;5043183;28;20077;-63
2021/08/01 13:37:21;;;;;;;7.15;2.22;;;;;;;;;;5039887;28;20056;-64
2021/08/01 13:39:49;;;;;;;5.75;1.70;;;;;;;;;;5044887;28;20145;-63
2021/08/01 13:42:17;;;;;;;5.93;1.88;;;;;;;;;;5043964;28;20147;-63
2021/08/01 13:44:43;;;;;;;11.30;1.85;;;;;;;;;;5046314;28;20128;-64
2021/08/01 13:47:16;;;;;;;7.32;1.75;;;;;;;;;;5044696;28;20135;-64
2021/08/01 13:49:44;;;;;;;10.23;2.05;;;;;;;;;;5041892;28;20132;-63
2021/08/01 13:52:11;;;;;;;9.32;2.17;;;;;;;;;;5042418;28;20160;-64
2021/08/01 13:54:38;;;;;;;11.80;1.90;;;;;;;;;;5042929;28;20114;-63
2021/08/01 13:57:08;;;;;;;7.78;1.92;;;;;;;;;;5042344;28;20049;-63
2021/08/01 13:59:35;;;;;;;9.57;2.00;;;;;;;;;;5038393;28;20049;-63
2021/08/01 14:02:03;;;;;;;10.82;2.00;;;;;;;;;;5042910;28;20112;-64
2021/08/01 14:04:29;;;;;;;5.35;1.60;;;;;;;;;;5046002;28;20060;-63
2021/08/01 14:06:56;;;;;;;7.95;1.85;;;;;;;;;;5043613;28;20137;-63
2021/08/01 14:09:22;;;;;;;9.90;2.30;;;;;;;;;;5044514;28;20080;-63
2021/08/01 14:11:50;;;;;;;11.90;2.17;;;;;;;;;;5043596;28;20131;-64
2021/08/01 14:14:16;;;;;;;;;;;;;;;;;;5040976;28;20135;-62
2021/08/01 14:16:43;;;;;;;11.65;2.45;;;;;;;;;;5039622;28;19920;-63
2021/08/01 14:19:09;;;;;;;9.35;2.25;;;;;;;;;;5040840;28;20072;-62
2021/08/01 14:21:36;;;;;;;8.25;2.30;;;;;;;;;;5033938;28;20148;-63
2021/08/01 14:24:03;;;;;;;11.85;2.63;;;;;;;;;;5046124;28;20156;-63
2021/08/01 14:26:37;;;;;;;7.68;2.55;;;;;;;;;;5042969;28;20045;-63
2021/08/01 14:29:04;;;;;;;13.57;2.65;;;;;;;;;;5047500;28;20098;-63
2021/08/01 14:31:30;;;;;;;8.97;2.20;;;;;;;;;;5038097;28;20133;-63
2021/08/01 14:34:00;;;;;;;14.77;3.17;;;;;;;;;;5050040;28;20735;-63
2021/08/01 14:36:28;;;;;;;10.70;2.40;;;;;;;;;;5046568;28;20053;-62
2021/08/01 14:38:55;;;;;;;14.93;2.30;;;;;;;;;;5044760;28;20462;-63